sensor_id;sensor_type;location;lat;lon;timestamp;P1;durP1;ratioP1;P2;durP2;ratioP2
48042;SDS011;33988;47.992;8.820;2023-06-10T00:00:07;3.58;;;3.28;;
48042;SDS011;33988;47.992;8.820;2023-06-10T00:02:37;3.53;;;3.22;;
48042;SDS011;33988;47.992;8.820;2023-06-10T00:05:06;3.58;;;2.97;;
48042;SDS011;33988;47.992;8.820;2023-06-10T00:07:36;3.42;;;2.85;;
48042;SDS011;33988;47.992;8.820;2023-06-10T00:10:04;6.85;;;3.53;;
48042;SDS011;33988;47.992;8.820;2023-06-10T00:12:32;3.53;;;3.10;;
48042;SDS011;33988;47.992;8.820;2023-06-10T00:17:35;3.00;;;2.58;;
48042;SDS011;33988;47.992;8.820;2023-06-10T00:20:07;3.08;;;2.78;;
48042;SDS011;33988;47.992;8.820;2023-06-10T00:25:05;3.75;;;2.78;;
48042;SDS011;33988;47.992;8.820;2023-06-10T00:27:33;4.13;;;2.95;;
48042;SDS011;33988;47.992;8.820;2023-06-10T00:30:04;3.63;;;3.33;;
48042;SDS011;33988;47.992;8.820;2023-06-10T00:32:35;3.42;;;3.13;;
48042;SDS011;33988;47.992;8.820;2023-06-10T00:35:04;4.15;;;3.15;;
48042;SDS011;33988;47.992;8.820;2023-06-10T00:37:35;3.58;;;3.05;;
48042;SDS011;33988;47.992;8.820;2023-06-10T00:42:34;3.00;;;2.70;;
48042;SDS011;33988;47.992;8.820;2023-06-10T00:45:01;3.78;;;3.17;;
48042;SDS011;33988;47.992;8.820;2023-06-10T00:47:28;3.20;;;2.90;;
48042;SDS011;33988;47.992;8.820;2023-06-10T00:49:56;3.25;;;2.83;;
48042;SDS011;33988;47.992;8.820;2023-06-10T00:52:25;3.25;;;2.95;;
48042;SDS011;33988;47.992;8.820;2023-06-10T00:54:55;3.38;;;3.08;;
48042;SDS011;33988;47.992;8.820;2023-06-10T00:57:22;3.83;;;3.20;;
48042;SDS011;33988;47.992;8.820;2023-06-10T00:59:49;5.07;;;3.55;;
48042;SDS011;33988;47.992;8.820;2023-06-10T01:04:50;3.08;;;2.78;;
48042;SDS011;33988;47.992;8.820;2023-06-10T01:10:03;3.92;;;3.55;;
48042;SDS011;33988;47.992;8.820;2023-06-10T01:15:32;3.58;;;3.22;;
48042;SDS011;33988;47.992;8.820;2023-06-10T01:18:03;4.30;;;3.33;;
48042;SDS011;33988;47.992;8.820;2023-06-10T01:20:36;4.20;;;3.35;;
48042;SDS011;33988;47.992;8.820;2023-06-10T01:23:07;4.45;;;3.63;;
48042;SDS011;33988;47.992;8.820;2023-06-10T01:25:36;4.53;;;3.72;;
48042;SDS011;33988;47.992;8.820;2023-06-10T01:28:24;5.85;;;3.55;;
48042;SDS011;33988;47.992;8.820;2023-06-10T01:34:14;4.20;;;3.17;;
48042;SDS011;33988;47.992;8.820;2023-06-10T01:36:46;3.42;;;3.10;;
48042;SDS011;33988;47.992;8.820;2023-06-10T01:39:15;4.95;;;3.42;;
48042;SDS011;33988;47.992;8.820;2023-06-10T01:41:47;4.35;;;3.47;;
48042;SDS011;33988;47.992;8.820;2023-06-10T01:44:20;5.15;;;3.50;;
48042;SDS011;33988;47.992;8.820;2023-06-10T01:46:48;4.05;;;3.25;;
48042;SDS011;33988;47.992;8.820;2023-06-10T01:49:18;3.72;;;3.35;;
48042;SDS011;33988;47.992;8.820;2023-06-10T01:51:45;4.25;;;3.50;;
48042;SDS011;33988;47.992;8.820;2023-06-10T01:54:12;5.43;;;3.60;;
48042;SDS011;33988;47.992;8.820;2023-06-10T01:56:39;3.90;;;3.35;;
48042;SDS011;33988;47.992;8.820;2023-06-10T01:59:09;3.50;;;3.15;;
48042;SDS011;33988;47.992;8.820;2023-06-10T02:01:36;3.40;;;3.03;;
48042;SDS011;33988;47.992;8.820;2023-06-10T02:04:03;3.50;;;3.20;;
48042;SDS011;33988;47.992;8.820;2023-06-10T02:06:30;3.85;;;3.42;;
48042;SDS011;33988;47.992;8.820;2023-06-10T02:08:57;3.55;;;3.25;;
48042;SDS011;33988;47.992;8.820;2023-06-10T02:11:24;3.55;;;3.25;;
48042;SDS011;33988;47.992;8.820;2023-06-10T02:13:53;4.72;;;3.65;;
48042;SDS011;33988;47.992;8.820;2023-06-10T02:16:19;3.55;;;3.25;;
48042;SDS011;33988;47.992;8.820;2023-06-10T02:18:47;3.70;;;3.35;;
48042;SDS011;33988;47.992;8.820;2023-06-10T02:21:16;3.92;;;3.50;;
48042;SDS011;33988;47.992;8.820;2023-06-10T02:23:43;3.47;;;3.17;;
48042;SDS011;33988;47.992;8.820;2023-06-10T02:26:10;4.03;;;3.60;;
48042;SDS011;33988;47.992;8.820;2023-06-10T02:28:43;6.18;;;3.83;;
48042;SDS011;33988;47.992;8.820;2023-06-10T02:31:13;4.35;;;3.83;;
48042;SDS011;33988;47.992;8.820;2023-06-10T02:33:44;6.35;;;4.10;;
48042;SDS011;33988;47.992;8.820;2023-06-10T02:36:11;4.53;;;3.75;;
48042;SDS011;33988;47.992;8.820;2023-06-10T02:38:39;4.00;;;3.60;;
48042;SDS011;33988;47.992;8.820;2023-06-10T02:41:13;4.50;;;3.95;;
48042;SDS011;33988;47.992;8.820;2023-06-10T02:43:40;5.18;;;3.83;;
48042;SDS011;33988;47.992;8.820;2023-06-10T02:46:10;4.15;;;3.72;;
48042;SDS011;33988;47.992;8.820;2023-06-10T02:48:40;3.83;;;3.42;;
48042;SDS011;33988;47.992;8.820;2023-06-10T02:51:10;4.30;;;3.90;;
48042;SDS011;33988;47.992;8.820;2023-06-10T02:53:37;3.85;;;3.45;;
48042;SDS011;33988;47.992;8.820;2023-06-10T02:56:06;3.78;;;3.30;;
48042;SDS011;33988;47.992;8.820;2023-06-10T02:58:33;4.15;;;3.42;;
48042;SDS011;33988;47.992;8.820;2023-06-10T03:01:00;5.78;;;3.88;;
48042;SDS011;33988;47.992;8.820;2023-06-10T03:03:30;3.88;;;3.30;;
48042;SDS011;33988;47.992;8.820;2023-06-10T03:05:59;4.20;;;3.53;;
48042;SDS011;33988;47.992;8.820;2023-06-10T03:08:26;4.57;;;3.83;;
48042;SDS011;33988;47.992;8.820;2023-06-10T03:10:55;4.43;;;3.75;;
48042;SDS011;33988;47.992;8.820;2023-06-10T03:13:24;4.40;;;3.97;;
48042;SDS011;33988;47.992;8.820;2023-06-10T03:15:53;3.97;;;3.58;;
48042;SDS011;33988;47.992;8.820;2023-06-10T03:18:20;5.22;;;4.05;;
48042;SDS011;33988;47.992;8.820;2023-06-10T03:20:52;5.22;;;3.88;;
48042;SDS011;33988;47.992;8.820;2023-06-10T03:23:22;4.05;;;3.55;;
48042;SDS011;33988;47.992;8.820;2023-06-10T03:25:50;4.43;;;3.90;;
48042;SDS011;33988;47.992;8.820;2023-06-10T03:28:19;4.55;;;4.10;;
48042;SDS011;33988;47.992;8.820;2023-06-10T03:30:46;4.25;;;3.85;;
48042;SDS011;33988;47.992;8.820;2023-06-10T03:33:13;5.10;;;3.80;;
48042;SDS011;33988;47.992;8.820;2023-06-10T03:35:43;4.10;;;3.70;;
48042;SDS011;33988;47.992;8.820;2023-06-10T03:38:10;4.43;;;4.00;;
48042;SDS011;33988;47.992;8.820;2023-06-10T03:40:37;5.55;;;4.10;;
48042;SDS011;33988;47.992;8.820;2023-06-10T03:43:04;4.38;;;3.85;;
48042;SDS011;33988;47.992;8.820;2023-06-10T03:45:33;4.35;;;3.50;;
48042;SDS011;33988;47.992;8.820;2023-06-10T03:48:03;4.60;;;3.45;;
48042;SDS011;33988;47.992;8.820;2023-06-10T03:50:30;4.20;;;3.80;;
48042;SDS011;33988;47.992;8.820;2023-06-10T03:52:57;4.65;;;3.75;;
48042;SDS011;33988;47.992;8.820;2023-06-10T03:55:24;5.10;;;4.15;;
48042;SDS011;33988;47.992;8.820;2023-06-10T03:57:52;4.68;;;3.97;;
48042;SDS011;33988;47.992;8.820;2023-06-10T04:00:19;4.00;;;3.65;;
48042;SDS011;33988;47.992;8.820;2023-06-10T04:02:48;4.85;;;4.05;;
48042;SDS011;33988;47.992;8.820;2023-06-10T04:05:18;4.20;;;3.80;;
48042;SDS011;33988;47.992;8.820;2023-06-10T04:07:48;4.07;;;3.67;;
48042;SDS011;33988;47.992;8.820;2023-06-10T04:10:16;4.80;;;4.30;;
48042;SDS011;33988;47.992;8.820;2023-06-10T04:12:43;5.60;;;4.10;;
48042;SDS011;33988;47.992;8.820;2023-06-10T04:15:10;4.13;;;3.58;;
48042;SDS011;33988;47.992;8.820;2023-06-10T04:17:41;4.55;;;4.15;;
48042;SDS011;33988;47.992;8.820;2023-06-10T04:20:09;4.47;;;3.80;;
48042;SDS011;33988;47.992;8.820;2023-06-10T04:22:36;4.55;;;4.15;;
48042;SDS011;33988;47.992;8.820;2023-06-10T04:25:03;5.15;;;4.38;;
48042;SDS011;33988;47.992;8.820;2023-06-10T04:27:31;4.57;;;4.03;;
48042;SDS011;33988;47.992;8.820;2023-06-10T04:30:00;4.88;;;4.03;;
48042;SDS011;33988;47.992;8.820;2023-06-10T04:32:29;5.35;;;4.35;;
48042;SDS011;33988;47.992;8.820;2023-06-10T04:34:57;4.53;;;3.78;;
48042;SDS011;33988;47.992;8.820;2023-06-10T04:37:25;5.13;;;4.03;;
48042;SDS011;33988;47.992;8.820;2023-06-10T04:39:52;4.30;;;3.90;;
48042;SDS011;33988;47.992;8.820;2023-06-10T04:42:19;5.43;;;4.40;;
48042;SDS011;33988;47.992;8.820;2023-06-10T04:44:46;4.30;;;3.90;;
48042;SDS011;33988;47.992;8.820;2023-06-10T04:47:16;4.43;;;4.03;;
48042;SDS011;33988;47.992;8.820;2023-06-10T04:49:43;4.40;;;4.00;;
48042;SDS011;33988;47.992;8.820;2023-06-10T04:52:10;4.45;;;4.05;;
48042;SDS011;33988;47.992;8.820;2023-06-10T04:54:44;6.75;;;4.45;;
48042;SDS011;33988;47.992;8.820;2023-06-10T04:57:11;16.73;;;4.43;;
48042;SDS011;33988;47.992;8.820;2023-06-10T04:59:40;4.80;;;4.15;;
48042;SDS011;33988;47.992;8.820;2023-06-10T05:02:09;6.07;;;4.22;;
48042;SDS011;33988;47.992;8.820;2023-06-10T05:04:36;4.85;;;4.13;;
48042;SDS011;33988;47.992;8.820;2023-06-10T05:07:03;4.97;;;4.53;;
48042;SDS011;33988;47.992;8.820;2023-06-10T05:09:31;4.47;;;4.07;;
48042;SDS011;33988;47.992;8.820;2023-06-10T05:12:01;4.43;;;4.03;;
48042;SDS011;33988;47.992;8.820;2023-06-10T05:14:28;5.93;;;4.70;;
48042;SDS011;33988;47.992;8.820;2023-06-10T05:16:58;5.13;;;3.97;;
48042;SDS011;33988;47.992;8.820;2023-06-10T05:19:25;6.45;;;4.57;;
48042;SDS011;33988;47.992;8.820;2023-06-10T05:21:55;5.00;;;4.20;;
48042;SDS011;33988;47.992;8.820;2023-06-10T05:24:24;6.28;;;4.60;;
48042;SDS011;33988;47.992;8.820;2023-06-10T05:26:53;4.22;;;3.83;;
48042;SDS011;33988;47.992;8.820;2023-06-10T05:29:20;4.82;;;4.32;;
48042;SDS011;33988;47.992;8.820;2023-06-10T05:31:47;5.22;;;4.72;;
48042;SDS011;33988;47.992;8.820;2023-06-10T05:34:14;4.88;;;4.38;;
48042;SDS011;33988;47.992;8.820;2023-06-10T05:36:41;6.30;;;4.53;;
48042;SDS011;33988;47.992;8.820;2023-06-10T05:39:09;5.38;;;4.65;;
48042;SDS011;33988;47.992;8.820;2023-06-10T05:41:36;5.47;;;4.55;;
48042;SDS011;33988;47.992;8.820;2023-06-10T05:44:03;5.28;;;4.60;;
48042;SDS011;33988;47.992;8.820;2023-06-10T05:46:30;8.23;;;4.55;;
48042;SDS011;33988;47.992;8.820;2023-06-10T05:48:58;5.43;;;4.82;;
48042;SDS011;33988;47.992;8.820;2023-06-10T05:53:58;4.95;;;4.28;;
48042;SDS011;33988;47.992;8.820;2023-06-10T05:56:25;4.40;;;3.97;;
48042;SDS011;33988;47.992;8.820;2023-06-10T05:58:52;5.55;;;4.88;;
48042;SDS011;33988;47.992;8.820;2023-06-10T06:01:21;4.85;;;4.43;;
48042;SDS011;33988;47.992;8.820;2023-06-10T06:03:53;4.50;;;4.10;;
48042;SDS011;33988;47.992;8.820;2023-06-10T06:06:23;6.38;;;4.93;;
48042;SDS011;33988;47.992;8.820;2023-06-10T06:08:50;4.88;;;4.47;;
48042;SDS011;33988;47.992;8.820;2023-06-10T06:11:17;4.95;;;4.45;;
48042;SDS011;33988;47.992;8.820;2023-06-10T06:13:44;5.10;;;4.63;;
48042;SDS011;33988;47.992;8.820;2023-06-10T06:16:18;4.57;;;4.15;;
48042;SDS011;33988;47.992;8.820;2023-06-10T06:18:45;4.93;;;4.43;;
48042;SDS011;33988;47.992;8.820;2023-06-10T06:21:12;4.88;;;4.40;;
48042;SDS011;33988;47.992;8.820;2023-06-10T06:23:39;5.97;;;4.60;;
48042;SDS011;33988;47.992;8.820;2023-06-10T06:26:06;5.13;;;4.43;;
48042;SDS011;33988;47.992;8.820;2023-06-10T06:28:36;4.95;;;4.43;;
48042;SDS011;33988;47.992;8.820;2023-06-10T06:31:03;5.13;;;4.60;;
48042;SDS011;33988;47.992;8.820;2023-06-10T06:33:30;4.95;;;4.45;;
48042;SDS011;33988;47.992;8.820;2023-06-10T06:35:57;4.72;;;4.28;;
48042;SDS011;33988;47.992;8.820;2023-06-10T06:38:24;5.15;;;4.65;;
48042;SDS011;33988;47.992;8.820;2023-06-10T06:40:53;5.03;;;4.53;;
48042;SDS011;33988;47.992;8.820;2023-06-10T06:43:20;4.95;;;4.55;;
48042;SDS011;33988;47.992;8.820;2023-06-10T06:45:49;4.80;;;4.18;;
48042;SDS011;33988;47.992;8.820;2023-06-10T06:48:21;4.32;;;3.92;;
48042;SDS011;33988;47.992;8.820;2023-06-10T06:50:51;4.55;;;4.05;;
48042;SDS011;33988;47.992;8.820;2023-06-10T06:53:20;3.83;;;3.53;;
48042;SDS011;33988;47.992;8.820;2023-06-10T06:55:47;5.03;;;4.45;;
48042;SDS011;33988;47.992;8.820;2023-06-10T06:58:14;4.35;;;3.95;;
48042;SDS011;33988;47.992;8.820;2023-06-10T07:00:48;4.63;;;3.80;;
48042;SDS011;33988;47.992;8.820;2023-06-10T07:03:16;3.95;;;3.55;;
48042;SDS011;33988;47.992;8.820;2023-06-10T07:05:49;4.07;;;3.60;;
48042;SDS011;33988;47.992;8.820;2023-06-10T07:08:18;3.83;;;3.53;;
48042;SDS011;33988;47.992;8.820;2023-06-10T07:10:45;4.05;;;3.67;;
48042;SDS011;33988;47.992;8.820;2023-06-10T07:13:12;4.70;;;3.42;;
48042;SDS011;33988;47.992;8.820;2023-06-10T07:15:41;3.53;;;3.22;;
48042;SDS011;33988;47.992;8.820;2023-06-10T07:18:11;4.32;;;2.97;;
48042;SDS011;33988;47.992;8.820;2023-06-10T07:20:40;3.33;;;3.03;;
48042;SDS011;33988;47.992;8.820;2023-06-10T07:23:07;3.40;;;3.10;;
48042;SDS011;33988;47.992;8.820;2023-06-10T07:25:36;3.30;;;3.00;;
48042;SDS011;33988;47.992;8.820;2023-06-10T07:28:04;3.53;;;3.22;;
48042;SDS011;33988;47.992;8.820;2023-06-10T07:30:31;3.58;;;3.28;;
48042;SDS011;33988;47.992;8.820;2023-06-10T07:32:58;5.88;;;3.10;;
48042;SDS011;33988;47.992;8.820;2023-06-10T07:35:25;3.00;;;2.80;;
48042;SDS011;33988;47.992;8.820;2023-06-10T07:37:52;3.53;;;3.22;;
48042;SDS011;33988;47.992;8.820;2023-06-10T07:40:19;3.53;;;3.03;;
48042;SDS011;33988;47.992;8.820;2023-06-10T07:42:48;3.17;;;2.90;;
48042;SDS011;33988;47.992;8.820;2023-06-10T07:47:46;3.55;;;3.25;;
48042;SDS011;33988;47.992;8.820;2023-06-10T07:50:17;3.35;;;3.05;;
48042;SDS011;33988;47.992;8.820;2023-06-10T07:52:47;3.88;;;3.13;;
48042;SDS011;33988;47.992;8.820;2023-06-10T07:55:13;3.53;;;3.22;;
48042;SDS011;33988;47.992;8.820;2023-06-10T07:57:41;3.25;;;2.95;;
48042;SDS011;33988;47.992;8.820;2023-06-10T08:00:08;4.63;;;3.30;;
48042;SDS011;33988;47.992;8.820;2023-06-10T08:02:35;3.63;;;3.33;;
48042;SDS011;33988;47.992;8.820;2023-06-10T08:05:05;4.65;;;3.33;;
48042;SDS011;33988;47.992;8.820;2023-06-10T08:07:33;3.45;;;3.15;;
48042;SDS011;33988;47.992;8.820;2023-06-10T08:10:02;3.67;;;3.20;;
48042;SDS011;33988;47.992;8.820;2023-06-10T08:12:33;3.30;;;3.00;;
48042;SDS011;33988;47.992;8.820;2023-06-10T08:15:00;3.70;;;3.40;;
48042;SDS011;33988;47.992;8.820;2023-06-10T08:17:32;3.72;;;3.42;;
48042;SDS011;33988;47.992;8.820;2023-06-10T08:20:00;3.90;;;3.55;;
48042;SDS011;33988;47.992;8.820;2023-06-10T08:22:27;5.70;;;3.72;;
48042;SDS011;33988;47.992;8.820;2023-06-10T08:24:55;4.75;;;3.47;;
48042;SDS011;33988;47.992;8.820;2023-06-10T08:27:24;3.45;;;3.15;;
48042;SDS011;33988;47.992;8.820;2023-06-10T08:29:51;3.67;;;3.38;;
48042;SDS011;33988;47.992;8.820;2023-06-10T08:32:20;3.75;;;3.45;;
48042;SDS011;33988;47.992;8.820;2023-06-10T08:34:50;3.38;;;3.08;;
48042;SDS011;33988;47.992;8.820;2023-06-10T08:37:17;3.28;;;2.97;;
48042;SDS011;33988;47.992;8.820;2023-06-10T08:39:43;3.50;;;3.20;;
48042;SDS011;33988;47.992;8.820;2023-06-10T08:42:11;3.40;;;3.10;;
48042;SDS011;33988;47.992;8.820;2023-06-10T08:45:13;3.60;;;3.30;;
48042;SDS011;33988;47.992;8.820;2023-06-10T08:47:49;3.58;;;3.13;;
48042;SDS011;33988;47.992;8.820;2023-06-10T08:52:48;3.13;;;2.83;;
48042;SDS011;33988;47.992;8.820;2023-06-10T08:55:27;4.03;;;2.97;;
48042;SDS011;33988;47.992;8.820;2023-06-10T08:58:02;3.50;;;3.20;;
48042;SDS011;33988;47.992;8.820;2023-06-10T09:00:32;3.50;;;3.20;;
48042;SDS011;33988;47.992;8.820;2023-06-10T09:03:00;3.70;;;3.03;;
48042;SDS011;33988;47.992;8.820;2023-06-10T09:05:36;3.45;;;3.15;;
48042;SDS011;33988;47.992;8.820;2023-06-10T09:08:06;3.83;;;3.42;;
48042;SDS011;33988;47.992;8.820;2023-06-10T09:10:35;3.80;;;3.50;;
48042;SDS011;33988;47.992;8.820;2023-06-10T09:13:02;7.50;;;3.80;;
48042;SDS011;33988;47.992;8.820;2023-06-10T09:15:29;3.53;;;3.22;;
48042;SDS011;33988;47.992;8.820;2023-06-10T09:17:59;3.05;;;2.85;;
48042;SDS011;33988;47.992;8.820;2023-06-10T09:20:26;3.67;;;3.38;;
48042;SDS011;33988;47.992;8.820;2023-06-10T09:22:53;3.78;;;3.40;;
48042;SDS011;33988;47.992;8.820;2023-06-10T09:25:33;3.88;;;3.20;;
48042;SDS011;33988;47.992;8.820;2023-06-10T09:28:08;3.42;;;3.15;;
48042;SDS011;33988;47.992;8.820;2023-06-10T09:30:44;4.45;;;3.67;;
48042;SDS011;33988;47.992;8.820;2023-06-10T09:33:13;3.40;;;3.10;;
48042;SDS011;33988;47.992;8.820;2023-06-10T09:35:48;3.83;;;3.50;;
48042;SDS011;33988;47.992;8.820;2023-06-10T09:38:19;4.05;;;3.50;;
48042;SDS011;33988;47.992;8.820;2023-06-10T09:40:48;4.07;;;3.50;;
48042;SDS011;33988;47.992;8.820;2023-06-10T09:43:22;3.45;;;3.15;;
48042;SDS011;33988;47.992;8.820;2023-06-10T09:45:49;5.18;;;3.22;;
48042;SDS011;33988;47.992;8.820;2023-06-10T09:48:20;3.67;;;3.30;;
48042;SDS011;33988;47.992;8.820;2023-06-10T09:50:48;3.75;;;3.42;;
48042;SDS011;33988;47.992;8.820;2023-06-10T09:53:16;3.47;;;3.17;;
48042;SDS011;33988;47.992;8.820;2023-06-10T09:55:46;4.03;;;3.33;;
48042;SDS011;33988;47.992;8.820;2023-06-10T09:58:14;3.55;;;3.25;;
48042;SDS011;33988;47.992;8.820;2023-06-10T10:00:41;3.47;;;3.17;;
48042;SDS011;33988;47.992;8.820;2023-06-10T10:03:10;5.55;;;3.10;;
48042;SDS011;33988;47.992;8.820;2023-06-10T10:05:57;3.30;;;3.00;;
48042;SDS011;33988;47.992;8.820;2023-06-10T10:08:26;3.13;;;2.83;;
48042;SDS011;33988;47.992;8.820;2023-06-10T10:10:55;3.50;;;3.20;;
48042;SDS011;33988;47.992;8.820;2023-06-10T10:13:24;4.28;;;3.28;;
48042;SDS011;33988;47.992;8.820;2023-06-10T10:15:53;3.60;;;3.30;;
48042;SDS011;33988;47.992;8.820;2023-06-10T10:18:24;3.78;;;3.47;;
48042;SDS011;33988;47.992;8.820;2023-06-10T10:20:57;3.00;;;2.80;;
48042;SDS011;33988;47.992;8.820;2023-06-10T10:23:36;3.88;;;3.08;;
48042;SDS011;33988;47.992;8.820;2023-06-10T10:26:22;3.33;;;3.03;;
48042;SDS011;33988;47.992;8.820;2023-06-10T10:29:14;3.08;;;2.80;;
48042;SDS011;33988;47.992;8.820;2023-06-10T10:31:58;3.45;;;3.15;;
48042;SDS011;33988;47.992;8.820;2023-06-10T10:34:31;4.03;;;3.63;;
48042;SDS011;33988;47.992;8.820;2023-06-10T10:37:05;2.97;;;2.78;;
48042;SDS011;33988;47.992;8.820;2023-06-10T10:39:33;3.65;;;3.35;;
48042;SDS011;33988;47.992;8.820;2023-06-10T10:42:03;3.33;;;3.03;;
48042;SDS011;33988;47.992;8.820;2023-06-10T10:44:31;3.40;;;3.08;;
48042;SDS011;33988;47.992;8.820;2023-06-10T10:47:02;3.35;;;3.05;;
48042;SDS011;33988;47.992;8.820;2023-06-10T10:49:35;3.50;;;3.20;;
48042;SDS011;33988;47.992;8.820;2023-06-10T10:52:10;3.25;;;2.95;;
48042;SDS011;33988;47.992;8.820;2023-06-10T10:54:41;3.28;;;2.97;;
48042;SDS011;33988;47.992;8.820;2023-06-10T10:57:17;3.90;;;3.25;;
48042;SDS011;33988;47.992;8.820;2023-06-10T11:02:16;3.42;;;3.13;;
48042;SDS011;33988;47.992;8.820;2023-06-10T11:05:12;3.53;;;3.13;;
48042;SDS011;33988;47.992;8.820;2023-06-10T11:07:51;5.90;;;3.65;;
48042;SDS011;33988;47.992;8.820;2023-06-10T11:10:32;3.75;;;3.45;;
48042;SDS011;33988;47.992;8.820;2023-06-10T11:13:05;3.20;;;2.90;;
48042;SDS011;33988;47.992;8.820;2023-06-10T11:15:37;3.42;;;3.13;;
48042;SDS011;33988;47.992;8.820;2023-06-10T11:18:40;3.55;;;3.25;;
48042;SDS011;33988;47.992;8.820;2023-06-10T11:21:07;4.45;;;2.88;;
48042;SDS011;33988;47.992;8.820;2023-06-10T11:23:43;3.50;;;3.13;;
48042;SDS011;33988;47.992;8.820;2023-06-10T11:31:25;3.08;;;2.83;;
48042;SDS011;33988;47.992;8.820;2023-06-10T11:33:55;3.08;;;2.88;;
48042;SDS011;33988;47.992;8.820;2023-06-10T11:36:23;3.67;;;3.30;;
48042;SDS011;33988;47.992;8.820;2023-06-10T11:38:55;4.13;;;3.25;;
48042;SDS011;33988;47.992;8.820;2023-06-10T11:41:24;3.03;;;2.72;;
48042;SDS011;33988;47.992;8.820;2023-06-10T11:43:56;2.97;;;2.67;;
48042;SDS011;33988;47.992;8.820;2023-06-10T11:46:33;2.25;;;2.03;;
48042;SDS011;33988;47.992;8.820;2023-06-10T11:49:01;2.38;;;2.17;;
48042;SDS011;33988;47.992;8.820;2023-06-10T11:51:33;3.13;;;2.10;;
48042;SDS011;33988;47.992;8.820;2023-06-10T11:54:10;2.25;;;2.05;;
48042;SDS011;33988;47.992;8.820;2023-06-10T11:56:37;2.63;;;2.42;;
48042;SDS011;33988;47.992;8.820;2023-06-10T11:59:05;3.25;;;2.53;;
48042;SDS011;33988;47.992;8.820;2023-06-10T12:01:37;3.05;;;2.70;;
48042;SDS011;33988;47.992;8.820;2023-06-10T12:04:11;2.83;;;2.63;;
48042;SDS011;33988;47.992;8.820;2023-06-10T12:09:26;2.40;;;2.20;;
48042;SDS011;33988;47.992;8.820;2023-06-10T12:12:00;2.57;;;2.30;;
48042;SDS011;33988;47.992;8.820;2023-06-10T12:20:01;4.18;;;2.17;;
48042;SDS011;33988;47.992;8.820;2023-06-10T12:22:37;2.20;;;1.70;;
48042;SDS011;33988;47.992;8.820;2023-06-10T12:25:09;2.20;;;2.00;;
48042;SDS011;33988;47.992;8.820;2023-06-10T12:27:39;1.88;;;1.77;;
48042;SDS011;33988;47.992;8.820;2023-06-10T12:30:19;2.30;;;1.70;;
48042;SDS011;33988;47.992;8.820;2023-06-10T12:32:48;1.83;;;1.73;;
48042;SDS011;33988;47.992;8.820;2023-06-10T12:35:20;2.10;;;1.90;;
48042;SDS011;33988;47.992;8.820;2023-06-10T12:37:58;2.08;;;1.92;;
48042;SDS011;33988;47.992;8.820;2023-06-10T12:40:30;2.35;;;1.98;;
48042;SDS011;33988;47.992;8.820;2023-06-10T12:42:59;2.20;;;1.85;;
48042;SDS011;33988;47.992;8.820;2023-06-10T12:45:30;1.70;;;1.55;;
48042;SDS011;33988;47.992;8.820;2023-06-10T12:50:54;2.30;;;1.80;;
48042;SDS011;33988;47.992;8.820;2023-06-10T12:53:24;1.60;;;1.45;;
48042;SDS011;33988;47.992;8.820;2023-06-10T12:55:52;1.92;;;1.83;;
48042;SDS011;33988;47.992;8.820;2023-06-10T12:58:20;1.92;;;1.52;;
48042;SDS011;33988;47.992;8.820;2023-06-10T13:00:50;1.80;;;1.70;;
48042;SDS011;33988;47.992;8.820;2023-06-10T13:03:19;1.67;;;1.58;;
48042;SDS011;33988;47.992;8.820;2023-06-10T13:05:47;1.50;;;1.40;;
48042;SDS011;33988;47.992;8.820;2023-06-10T13:08:16;1.77;;;1.60;;
48042;SDS011;33988;47.992;8.820;2023-06-10T13:10:43;2.05;;;1.85;;
48042;SDS011;33988;47.992;8.820;2023-06-10T13:13:15;1.83;;;1.73;;
48042;SDS011;33988;47.992;8.820;2023-06-10T13:15:44;2.92;;;1.88;;
48042;SDS011;33988;47.992;8.820;2023-06-10T13:18:11;1.70;;;1.60;;
48042;SDS011;33988;47.992;8.820;2023-06-10T13:20:41;1.80;;;1.70;;
48042;SDS011;33988;47.992;8.820;2023-06-10T13:23:09;1.90;;;1.80;;
48042;SDS011;33988;47.992;8.820;2023-06-10T13:25:36;1.83;;;1.73;;
48042;SDS011;33988;47.992;8.820;2023-06-10T13:28:05;2.10;;;1.88;;
48042;SDS011;33988;47.992;8.820;2023-06-10T13:30:34;1.77;;;1.67;;
48042;SDS011;33988;47.992;8.820;2023-06-10T13:33:03;2.00;;;1.90;;
48042;SDS011;33988;47.992;8.820;2023-06-10T13:35:30;1.90;;;1.80;;
48042;SDS011;33988;47.992;8.820;2023-06-10T13:38:00;2.00;;;1.90;;
48042;SDS011;33988;47.992;8.820;2023-06-10T13:40:29;2.45;;;2.25;;
48042;SDS011;33988;47.992;8.820;2023-06-10T13:42:59;2.88;;;1.92;;
48042;SDS011;33988;47.992;8.820;2023-06-10T13:45:26;1.88;;;1.73;;
48042;SDS011;33988;47.992;8.820;2023-06-10T13:47:54;1.83;;;1.73;;
48042;SDS011;33988;47.992;8.820;2023-06-10T13:50:21;1.95;;;1.73;;
48042;SDS011;33988;47.992;8.820;2023-06-10T13:52:48;2.20;;;2.00;;
48042;SDS011;33988;47.992;8.820;2023-06-10T13:55:17;2.42;;;1.90;;
48042;SDS011;33988;47.992;8.820;2023-06-10T13:57:47;1.83;;;1.73;;
48042;SDS011;33988;47.992;8.820;2023-06-10T14:00:14;5.32;;;1.73;;
48042;SDS011;33988;47.992;8.820;2023-06-10T14:02:43;1.77;;;1.58;;
48042;SDS011;33988;47.992;8.820;2023-06-10T14:05:13;1.85;;;1.65;;
48042;SDS011;33988;47.992;8.820;2023-06-10T14:07:42;1.70;;;1.60;;
48042;SDS011;33988;47.992;8.820;2023-06-10T14:10:09;1.83;;;1.73;;
48042;SDS011;33988;47.992;8.820;2023-06-10T14:12:36;2.00;;;1.80;;
48042;SDS011;33988;47.992;8.820;2023-06-10T14:15:06;5.30;;;2.00;;
48042;SDS011;33988;47.992;8.820;2023-06-10T14:20:03;2.00;;;1.77;;
48042;SDS011;33988;47.992;8.820;2023-06-10T14:22:31;1.92;;;1.73;;
48042;SDS011;33988;47.992;8.820;2023-06-10T14:24:58;2.00;;;1.80;;
48042;SDS011;33988;47.992;8.820;2023-06-10T14:27:30;2.38;;;1.85;;
48042;SDS011;33988;47.992;8.820;2023-06-10T14:29:57;1.90;;;1.70;;
48042;SDS011;33988;47.992;8.820;2023-06-10T14:32:27;2.40;;;1.95;;
48042;SDS011;33988;47.992;8.820;2023-06-10T14:34:54;1.80;;;1.70;;
48042;SDS011;33988;47.992;8.820;2023-06-10T14:37:20;1.70;;;1.60;;
48042;SDS011;33988;47.992;8.820;2023-06-10T14:39:50;1.55;;;1.45;;
48042;SDS011;33988;47.992;8.820;2023-06-10T14:42:17;3.45;;;2.10;;
48042;SDS011;33988;47.992;8.820;2023-06-10T14:44:44;3.58;;;2.85;;
48042;SDS011;33988;47.992;8.820;2023-06-10T14:47:11;4.05;;;2.45;;
48042;SDS011;33988;47.992;8.820;2023-06-10T14:49:40;2.55;;;2.33;;
48042;SDS011;33988;47.992;8.820;2023-06-10T14:52:10;7.32;;;2.15;;
48042;SDS011;33988;47.992;8.820;2023-06-10T14:54:39;2.40;;;2.20;;
48042;SDS011;33988;47.992;8.820;2023-06-10T14:57:06;2.53;;;2.25;;
48042;SDS011;33988;47.992;8.820;2023-06-10T14:59:33;2.00;;;1.83;;
48042;SDS011;33988;47.992;8.820;2023-06-10T15:02:00;3.05;;;2.28;;
48042;SDS011;33988;47.992;8.820;2023-06-10T15:04:28;2.05;;;1.85;;
48042;SDS011;33988;47.992;8.820;2023-06-10T15:06:55;2.55;;;2.35;;
48042;SDS011;33988;47.992;8.820;2023-06-10T15:09:24;2.35;;;2.15;;
48042;SDS011;33988;47.992;8.820;2023-06-10T15:11:53;2.65;;;2.45;;
48042;SDS011;33988;47.992;8.820;2023-06-10T15:14:21;2.60;;;2.10;;
48042;SDS011;33988;47.992;8.820;2023-06-10T15:16:50;4.05;;;2.53;;
48042;SDS011;33988;47.992;8.820;2023-06-10T15:19:19;2.25;;;2.05;;
48042;SDS011;33988;47.992;8.820;2023-06-10T15:21:49;2.72;;;2.53;;
48042;SDS011;33988;47.992;8.820;2023-06-10T15:24:16;2.42;;;2.22;;
48042;SDS011;33988;47.992;8.820;2023-06-10T15:26:43;2.65;;;2.15;;
48042;SDS011;33988;47.992;8.820;2023-06-10T15:29:10;2.58;;;1.90;;
48042;SDS011;33988;47.992;8.820;2023-06-10T15:31:39;2.72;;;2.53;;
48042;SDS011;33988;47.992;8.820;2023-06-10T15:34:06;2.10;;;1.90;;
48042;SDS011;33988;47.992;8.820;2023-06-10T15:36:35;1.83;;;1.67;;
48042;SDS011;33988;47.992;8.820;2023-06-10T15:39:03;1.85;;;1.75;;
48042;SDS011;33988;47.992;8.820;2023-06-10T15:41:33;1.90;;;1.77;;
48042;SDS011;33988;47.992;8.820;2023-06-10T15:46:30;2.20;;;1.83;;
48042;SDS011;33988;47.992;8.820;2023-06-10T15:48:58;2.28;;;1.75;;
48042;SDS011;33988;47.992;8.820;2023-06-10T15:51:27;2.33;;;2.13;;